Time;durP1;ratioP1;P1;durP2;ratioP2;P2;SDS_P1;SDS_P2;PMS_P1;PMS_P2;Temp;Humidity;BMP_temperature;BMP_pressure;BME280_temperature;BME280_humidity;BME280_pressure;Samples;Min_cycle;Max_cycle;Signal;HPM_P1;HPM_P2
2023/02/22 00:00:23;;;;;;;;;;;8.60;99.90;9.10;99492.00;;;;348786;27;83457;-94
2023/02/22 00:00:41;;;;;;;;;;;8.60;99.90;9.00;99479.00;;;;348373;27;90492;-94
2023/02/22 00:00:58;;;;;;;;;;;8.60;99.90;9.10;99484.00;;;;347655;28;83393;-94
2023/02/22 00:01:18;;;;;;;;;;;8.60;99.90;9.00;99495.00;;;;348512;27;88533;-94
2023/02/22 00:01:46;;;;;;;;;;;8.60;99.90;9.10;99490.00;;;;346358;28;82521;-94
2023/02/22 00:02:11;;;;;;;;;;;8.60;99.90;9.10;99485.00;;;;346947;28;90007;-94
2023/02/22 00:02:27;;;;;;;;;;;8.60;99.90;9.00;99489.00;;;;344774;28;82307;-95
2023/02/22 00:02:43;;;;;;;;;;;8.50;99.90;9.00;99489.00;;;;345930;28;90535;-94
2023/02/22 00:02:58;;;;;;;;;;;8.50;99.90;9.00;99482.00;;;;346202;28;82391;-94
2023/02/22 00:03:10;;;;;;;;;;;8.50;99.90;8.90;99488.00;;;;348522;27;89507;-94
2023/02/22 00:03:25;;;;;;;;;;;8.50;99.90;9.10;99486.00;;;;349064;27;83302;-94
2023/02/22 00:03:37;;;;;;;;;;;8.50;99.90;9.10;99487.00;;;;345945;28;91367;-93
2023/02/22 00:03:50;;;;;;;;;;;8.50;99.90;9.10;99485.00;;;;344686;28;83541;-94
2023/02/22 00:04:04;;;;;;;;;;;8.50;99.90;9.10;99490.00;;;;346018;28;88621;-94
2023/02/22 00:04:19;;;;;;;;;;;8.60;99.90;9.10;99492.00;;;;347998;28;83273;-94
2023/02/22 00:04:34;;;;;;;;;;;8.60;99.90;9.10;99488.00;;;;347480;28;89488;-94
2023/02/22 00:04:46;;;;;;;;;;;8.50;99.90;9.10;99487.00;;;;347999;28;82570;-95
2023/02/22 00:04:57;;;;;;;;;;;8.60;99.90;9.00;99486.00;;;;344848;28;89886;-94
2023/02/22 00:05:09;;;;;;;;;;;8.60;99.90;9.00;99479.00;;;;345789;28;82514;-94
2023/02/22 00:05:23;;;;;;;;;;;8.50;99.90;8.90;99482.00;;;;346409;28;90627;-94
2023/02/22 00:05:38;;;;;;;;;;;8.50;99.90;8.90;99489.00;;;;346618;28;83375;-93
2023/02/22 00:05:53;;;;;;;;;;;8.60;99.90;9.10;99489.00;;;;345137;28;88012;-94
2023/02/22 00:06:05;;;;;;;;;;;8.50;99.90;9.10;99487.00;;;;347732;28;83594;-95
2023/02/22 00:06:18;;;;;;;;;;;8.50;99.90;9.00;99481.00;;;;346068;28;89647;-94
2023/02/22 00:06:30;;;;;;;;;;;8.50;99.90;9.00;99484.00;;;;346472;28;83451;-94
2023/02/22 00:06:42;;;;;;;;;;;8.50;99.90;9.10;99479.00;;;;347762;28;88211;-94
2023/02/22 00:06:54;;;;;;;;;;;8.50;99.90;9.10;99493.00;;;;349295;27;82659;-93
2023/02/22 00:07:05;;;;;;;;;;;8.50;99.90;9.00;99490.00;;;;345889;28;90125;-94
2023/02/22 00:07:20;;;;;;;;;;;8.50;99.90;9.00;99493.00;;;;347998;28;83399;-94
2023/02/22 00:07:32;;;;;;;;;;;8.50;99.90;9.00;99490.00;;;;346254;28;88449;-94
2023/02/22 00:07:47;;;;;;;;;;;8.50;99.90;9.10;99488.00;;;;346777;28;83119;-93
2023/02/22 00:07:59;;;;;;;;;;;8.50;99.90;9.10;99485.00;;;;347970;28;90743;-94
2023/02/22 00:08:14;;;;;;;;;;;8.50;99.90;9.10;99487.00;;;;345471;28;82716;-94
2023/02/22 00:08:30;;;;;;;;;;;8.50;99.90;9.00;99489.00;;;;345168;28;89443;-94
2023/02/22 00:08:42;;;;;;;;;;;8.50;99.90;9.00;99487.00;;;;346438;28;82537;-95
2023/02/22 00:08:54;;;;;;;;;;;8.50;99.90;8.90;99479.00;;;;346612;28;86635;-94
2023/02/22 00:09:08;;;;;;;;;;;8.50;99.90;8.90;99492.00;;;;348009;27;82429;-94
2023/02/22 00:09:20;;;;;;;;;;;8.50;99.90;8.90;99489.00;;;;346443;28;91087;-93
2023/02/22 00:09:32;;;;;;;;;;;8.50;99.90;8.80;99485.00;;;;347257;28;83350;-93
2023/02/22 00:09:44;;;;;;;;;;;8.50;99.90;8.90;99492.00;;;;345250;28;90429;-95
2023/02/22 00:09:55;;;;;;;;;;;8.50;99.90;8.90;99492.00;;;;348236;28;83600;-94
2023/02/22 00:10:12;;;;;;;;;;;8.50;99.90;8.90;99488.00;;;;346459;28;89286;-93
2023/02/22 00:10:24;;;;;;;;;;;8.50;99.90;9.00;99497.00;;;;347229;28;82563;-95
2023/02/22 00:10:37;;;;;;;;;;;8.50;99.90;9.00;99483.00;;;;347940;27;90102;-95
2023/02/22 00:10:50;;;;;;;;;;;8.50;99.90;9.10;99483.00;;;;349817;27;82504;-94
2023/02/22 00:11:07;;;;;;;;;;;8.50;99.90;9.00;99490.00;;;;347789;28;87946;-93
2023/02/22 00:11:19;;;;;;;;;;;8.50;99.90;9.00;99492.00;;;;348530;28;83394;-93
2023/02/22 00:11:31;;;;;;;;;;;8.50;99.90;9.00;99492.00;;;;344991;28;91042;-94
2023/02/22 00:11:45;;;;;;;;;;;8.50;99.90;9.00;99488.00;;;;346728;28;82464;-93
2023/02/22 00:11:57;;;;;;;;;;;8.50;99.90;9.00;99499.00;;;;346118;28;90675;-93
2023/02/22 00:12:09;;;;;;;;;;;8.50;99.90;9.00;99489.00;;;;345654;28;82400;-93
2023/02/22 00:12:21;;;;;;;;;;;8.50;99.90;8.90;99485.00;;;;346733;28;89158;-94
2023/02/22 00:12:33;;;;;;;;;;;8.50;99.90;9.00;99488.00;;;;347066;28;83261;-95
2023/02/22 00:12:51;;;;;;;;;;;8.50;99.90;9.00;99489.00;;;;345281;28;89202;-93
2023/02/22 00:13:07;;;;;;;;;;;8.50;99.90;9.00;99485.00;;;;348064;27;83513;-94
2023/02/22 00:13:21;;;;;;;;;;;8.50;99.90;9.00;99480.00;;;;345062;28;90333;-94
2023/02/22 00:13:34;;;;;;;;;;;8.50;99.90;9.00;99489.00;;;;345338;28;82367;-94
2023/02/22 00:13:46;;;;;;;;;;;8.50;99.90;9.00;99490.00;;;;345928;28;90788;-93
2023/02/22 00:13:57;;;;;;;;;;;8.50;99.90;9.10;99483.00;;;;349761;27;83177;-93
2023/02/22 00:14:09;;;;;;;;;;;8.50;99.90;9.10;99492.00;;;;346530;28;89962;-93
2023/02/22 00:14:26;;;;;;;;;;;8.50;99.90;9.00;99488.00;;;;347179;28;82344;-95
2023/02/22 00:14:39;;;;;;;;;;;8.50;99.90;9.10;99488.00;;;;347779;28;86885;-94
2023/02/22 00:14:52;;;;;;;;;;;8.50;99.90;9.00;99490.00;;;;345018;28;83426;-94
2023/02/22 00:15:04;;;;;;;;;;;8.50;99.90;9.00;99488.00;;;;346076;28;87639;-94
2023/02/22 00:15:17;;;;;;;;;;;8.50;99.90;9.00;99486.00;;;;347382;28;82616;-94
2023/02/22 00:15:28;;;;;;;;;;;8.50;99.90;9.10;99486.00;;;;345670;28;88563;-95
2023/02/22 00:15:40;;;;;;;;;;;8.50;99.90;9.10;99486.00;;;;348825;27;82611;-94
2023/02/22 00:15:52;;;;;;;;;;;8.50;99.90;9.00;99485.00;;;;348398;27;92309;-95
2023/02/22 00:16:04;;;;;;;;;;;8.50;99.90;9.00;99482.00;;;;346667;28;82349;-94
2023/02/22 00:16:20;;;;;;;;;;;8.50;99.90;9.00;99494.00;;;;345968;28;90834;-94
2023/02/22 00:16:32;;;;;;;;;;;8.50;99.90;9.00;99490.00;;;;346506;28;82344;-94
2023/02/22 00:16:44;;;;;;;;;;;8.50;99.90;9.00;99484.00;;;;344474;28;89532;-94
2023/02/22 00:16:58;;;;;;;;;;;8.50;99.90;9.00;99484.00;;;;346519;28;82583;-94
2023/02/22 00:17:12;;;;;;;;;;;8.50;99.90;9.00;99489.00;;;;346194;28;86317;-95
2023/02/22 00:17:24;;;;;;;;;;;8.50;99.90;8.90;99495.00;;;;346041;28;83499;-92
2023/02/22 00:17:35;;;;;;;;;;;8.50;99.90;8.90;99483.00;;;;344603;28;86410;-93
2023/02/22 00:17:47;;;;;;;;;;;8.50;99.90;8.90;99488.00;;;;346006;28;83538;-94
2023/02/22 00:17:59;;;;;;;;;;;8.50;99.90;9.00;99490.00;;;;345851;28;89621;-95
2023/02/22 00:18:12;;;;;;;;;;;8.50;99.90;9.00;99482.00;;;;347915;28;82352;-95
2023/02/22 00:18:26;;;;;;;;;;;8.50;99.90;9.00;99492.00;;;;346779;28;89648;-94
2023/02/22 00:18:38;;;;;;;;;;;8.50;99.90;9.00;99488.00;;;;344815;28;83105;-94
2023/02/22 00:18:50;;;;;;;;;;;8.50;99.90;9.00;99488.00;;;;347285;28;91113;-95
2023/02/22 00:19:04;;;;;;;;;;;8.50;99.90;9.00;99493.00;;;;347341;28;83388;-94
2023/02/22 00:19:16;;;;;;;;;;;8.50;99.90;9.00;99490.00;;;;345932;28;90595;-95
2023/02/22 00:19:29;;;;;;;;;;;8.50;99.90;9.00;99490.00;;;;345580;28;82306;-94
2023/02/22 00:19:41;;;;;;;;;;;8.50;99.90;9.00;99489.00;;;;345180;28;87219;-95
2023/02/22 00:19:53;;;;;;;;;;;8.50;99.90;9.00;99491.00;;;;345929;28;82681;-95
2023/02/22 00:20:06;;;;;;;;;;;8.50;99.90;9.10;99486.00;;;;346930;28;88605;-94
2023/02/22 00:20:18;;;;;;;;;;;8.50;99.90;9.00;99494.00;;;;344507;28;82623;-94
2023/02/22 00:20:30;;;;;;;;;;;8.50;99.90;9.00;99488.00;;;;346035;28;87811;-94
2023/02/22 00:20:42;;;;;;;;;;;8.50;99.90;9.00;99491.00;;;;347556;28;83385;-95
2023/02/22 00:21:01;;;;;;;;;;;8.50;99.90;9.00;99488.00;;;;348504;27;90396;-94
2023/02/22 00:21:14;;;;;;;;;;;8.50;99.90;8.90;99488.00;;;;347677;28;82490;-94
2023/02/22 00:21:26;;;;;;;;;;;8.50;99.90;9.00;99494.00;;;;349138;27;88190;-93
2023/02/22 00:21:38;;;;;;;;;;;8.50;99.90;9.00;99494.00;;;;349852;27;82457;-95
2023/02/22 00:21:52;;;;;;;;;;;8.50;99.90;9.00;99485.00;;;;347681;27;89322;-95
2023/02/22 00:22:04;;;;;;;;;;;8.50;99.90;9.00;99492.00;;;;348254;28;82583;-95
2023/02/22 00:22:17;;;;;;;;;;;8.50;99.90;8.90;99490.00;;;;344847;28;89859;-94
2023/02/22 00:22:29;;;;;;;;;;;8.50;99.90;9.00;99494.00;;;;345079;28;82514;-94
2023/02/22 00:22:50;;;;;;;;;;;8.50;99.90;9.00;99486.00;;;;346391;28;88229;-95
2023/02/22 00:23:02;;;;;;;;;;;8.50;99.90;9.00;99497.00;;;;347961;28;82605;-95
2023/02/22 00:23:17;;;;;;;;;;;8.50;99.90;9.00;99490.00;;;;346343;28;87364;-94
2023/02/22 00:23:30;;;;;;;;;;;8.40;99.90;9.10;99492.00;;;;347132;28;82477;-94
2023/02/22 00:23:46;;;;;;;;;;;8.50;99.90;9.00;99491.00;;;;346252;28;88696;-94
2023/02/22 00:23:58;;;;;;;;;;;8.50;99.90;9.00;99493.00;;;;346648;28;82472;-95
2023/02/22 00:24:21;;;;;;;;;;;8.50;99.90;9.00;99490.00;;;;347413;28;91531;-95
2023/02/22 00:24:34;;;;;;;;;;;8.50;99.90;8.90;99497.00;;;;348195;28;82585;-94
2023/02/22 00:24:47;;;;;;;;;;;8.50;99.90;8.90;99490.00;;;;347484;28;90457;-94
2023/02/22 00:24:59;;;;;;;;;;;8.40;99.90;8.90;99491.00;;;;347877;28;82631;-94
2023/02/22 00:25:16;;;;;;;;;;;8.40;99.90;8.90;99488.00;;;;346293;28;88630;-92
2023/02/22 00:25:27;;;;;;;;;;;8.40;99.90;8.90;99489.00;;;;346678;28;82572;-94
2023/02/22 00:25:39;;;;;;;;;;;8.40;99.90;8.90;99487.00;;;;348860;27;87363;-94
2023/02/22 00:25:51;;;;;;;;;;;8.50;99.90;8.90;99488.00;;;;349147;27;82523;-94
2023/02/22 00:26:03;;;;;;;;;;;8.50;99.90;8.90;99491.00;;;;347595;28;91165;-96
2023/02/22 00:26:18;;;;;;;;;;;8.40;99.90;8.90;99489.00;;;;346626;28;82538;-94
2023/02/22 00:26:32;;;;;;;;;;;8.40;99.90;8.90;99500.00;;;;344818;28;88217;-95
2023/02/22 00:26:45;;;;;;;;;;;8.40;99.90;8.90;99498.00;;;;346852;28;82466;-93
2023/02/22 00:26:57;;;;;;;;;;;8.40;99.90;8.90;99488.00;;;;345968;28;90478;-94
2023/02/22 00:27:09;;;;;;;;;;;8.40;99.90;8.90;99487.00;;;;346290;28;83443;-94
2023/02/22 00:27:21;;;;;;;;;;;8.40;99.90;8.90;99492.00;;;;345909;28;88461;-94
2023/02/22 00:27:33;;;;;;;;;;;8.40;99.90;8.90;99489.00;;;;346237;28;82564;-95
2023/02/22 00:27:46;;;;;;;;;;;8.40;99.90;8.90;99487.00;;;;346032;28;88316;-95
2023/02/22 00:27:59;;;;;;;;;;;8.40;99.90;8.80;99484.00;;;;347298;28;82618;-93
2023/02/22 00:28:11;;;;;;;;;;;8.40;99.90;8.80;99483.00;;;;347418;28;89353;-91
2023/02/22 00:28:23;;;;;;;;;;;8.40;99.90;8.80;99487.00;;;;350509;27;82513;-92
2023/02/22 00:28:36;;;;;;;;;;;8.40;99.90;8.80;99489.00;;;;348718;28;89992;-92
2023/02/22 00:28:51;;;;;;;;;;;8.40;99.90;8.80;99486.00;;;;346271;28;82461;-93
2023/02/22 00:29:03;;;;;;;;;;;8.40;99.90;8.90;99490.00;;;;350208;27;91355;-92
2023/02/22 00:29:15;;;;;;;;;;;8.40;99.90;8.90;99489.00;;;;349154;28;82760;-94
2023/02/22 00:29:27;;;;;;;;;;;8.40;99.90;8.90;99491.00;;;;348645;28;87999;-94
2023/02/22 00:29:44;;;;;;;;;;;8.40;99.90;8.80;99486.00;;;;349406;28;82312;-88
2023/02/22 00:29:55;;;;;;;;;;;8.40;99.90;8.80;99484.00;;;;350397;27;86608;-93
2023/02/22 00:30:08;;;;;;;;;;;8.40;99.90;9.00;99490.00;;;;349170;28;82311;-94
2023/02/22 00:30:25;;;;;;;;;;;8.40;99.90;8.90;99493.00;;;;347129;28;89922;-93
2023/02/22 00:30:37;;;;;;;;;;;8.40;99.90;8.90;99493.00;;;;349340;27;82466;-93
2023/02/22 00:30:49;;;;;;;;;;;8.40;99.90;8.90;99484.00;;;;347062;28;86887;-93
2023/02/22 00:31:04;;;;;;;;;;;8.40;99.90;8.90;99483.00;;;;347593;28;82517;-93
2023/02/22 00:31:16;;;;;;;;;;;8.40;99.90;8.80;99491.00;;;;348560;28;88274;-93
2023/02/22 00:31:28;;;;;;;;;;;8.40;99.90;8.90;99481.00;;;;349161;28;82437;-95
2023/02/22 00:31:40;;;;;;;;;;;8.40;99.90;8.90;99488.00;;;;349823;27;87040;-94
2023/02/22 00:31:52;;;;;;;;;;;8.40;99.90;8.90;99484.00;;;;348785;28;82529;-94
2023/02/22 00:32:04;;;;;;;;;;;8.40;99.90;9.00;99488.00;;;;348592;28;88119;-95
2023/02/22 00:32:16;;;;;;;;;;;8.40;99.90;9.10;99488.00;;;;347799;28;82393;-95
2023/02/22 00:32:29;;;;;;;;;;;8.40;99.90;9.20;99483.00;;;;348498;28;88394;-94
2023/02/22 00:32:41;;;;;;;;;;;8.40;99.90;9.00;99489.00;;;;348595;28;82548;-94
2023/02/22 00:32:55;;;;;;;;;;;8.40;99.90;8.90;99480.00;;;;347496;28;90538;-95
2023/02/22 00:33:06;;;;;;;;;;;8.40;99.90;8.80;99482.00;;;;347221;28;82689;-95
2023/02/22 00:33:18;;;;;;;;;;;8.40;99.90;9.00;99483.00;;;;350240;27;89281;-94
2023/02/22 00:33:31;;;;;;;;;;;8.40;99.90;9.00;99489.00;;;;347920;28;82384;-95
2023/02/22 00:33:43;;;;;;;;;;;8.40;99.90;9.00;99492.00;;;;345709;28;88980;-94
2023/02/22 00:33:54;;;;;;;;;;;8.40;99.90;8.90;99484.00;;;;350669;27;82470;-94
2023/02/22 00:34:06;;;;;;;;;;;8.40;99.90;8.90;99475.00;;;;348712;27;90300;-95
2023/02/22 00:34:18;;;;;;;;;;;8.40;99.90;8.90;99479.00;;;;347956;28;82287;-95
2023/02/22 00:34:30;;;;;;;;;;;8.40;99.90;8.90;99487.00;;;;346034;28;88256;-94
2023/02/22 00:34:42;;;;;;;;;;;8.40;99.90;8.90;99477.00;;;;346393;28;83454;-94
2023/02/22 00:34:54;;;;;;;;;;;8.40;99.90;8.90;99490.00;;;;350093;27;89573;-95
2023/02/22 00:35:07;;;;;;;;;;;8.40;99.90;8.80;99481.00;;;;346315;28;83609;-94
2023/02/22 00:35:20;;;;;;;;;;;8.40;99.90;8.80;99494.00;;;;348815;27;90337;-94
2023/02/22 00:35:32;;;;;;;;;;;8.40;99.90;8.80;99485.00;;;;349087;27;83462;-95
2023/02/22 00:35:44;;;;;;;;;;;8.40;99.90;8.80;99494.00;;;;345944;28;90734;-95
2023/02/22 00:35:56;;;;;;;;;;;8.40;99.90;8.80;99482.00;;;;346534;27;82544;-94
2023/02/22 00:36:09;;;;;;;;;;;8.40;99.90;8.80;99490.00;;;;347359;28;88294;-95
2023/02/22 00:36:21;;;;;;;;;;;8.40;99.90;9.00;99491.00;;;;345478;28;82408;-94
2023/02/22 00:36:33;;;;;;;;;;;8.40;99.90;9.00;99492.00;;;;348720;27;90013;-95
2023/02/22 00:36:46;;;;;;;;;;;8.40;99.90;8.90;99486.00;;;;346395;28;83177;-93
2023/02/22 00:37:01;;;;;;;;;;;8.40;99.90;8.80;99489.00;;;;346915;28;89452;-94
2023/02/22 00:37:13;;;;;;;;;;;8.40;99.90;8.80;99485.00;;;;349011;27;82421;-95
2023/02/22 00:37:25;;;;;;;;;;;8.40;99.90;8.80;99489.00;;;;345579;28;91439;-95
2023/02/22 00:37:40;;;;;;;;;;;8.40;99.90;8.80;99490.00;;;;348958;27;83431;-95
2023/02/22 00:37:54;;;;;;;;;;;8.30;99.90;8.80;99490.00;;;;348534;27;90266;-95
2023/02/22 00:38:06;;;;;;;;;;;8.30;99.90;8.80;99485.00;;;;346423;28;82556;-95
2023/02/22 00:38:18;;;;;;;;;;;8.30;99.90;8.80;99480.00;;;;347520;28;90035;-94
2023/02/22 00:38:30;;;;;;;;;;;8.30;99.90;8.80;99486.00;;;;347850;28;82456;-95
2023/02/22 00:38:42;;;;;;;;;;;8.30;99.90;8.70;99484.00;;;;350330;27;88065;-94
2023/02/22 00:38:54;;;;;;;;;;;8.30;99.90;8.70;99486.00;;;;347775;28;83567;-95
2023/02/22 00:39:08;;;;;;;;;;;8.30;99.90;8.70;99490.00;;;;345991;28;89510;-94
2023/02/22 00:39:20;;;;;;;;;;;8.30;99.90;8.80;99479.00;;;;347515;28;83531;-94
2023/02/22 00:39:31;;;;;;;;;;;8.30;99.90;8.80;99482.00;;;;347027;28;89346;-94
2023/02/22 00:39:46;;;;;;;;;;;8.30;99.90;8.90;99481.00;;;;348623;27;82640;-94
2023/02/22 00:39:58;;;;;;;;;;;8.30;99.90;8.90;99487.00;;;;344039;28;90713;-95
2023/02/22 00:40:10;;;;;;;;;;;8.30;99.90;8.90;99481.00;;;;346176;28;82520;-95
2023/02/22 00:40:24;;;;;;;;;;;8.30;99.90;9.00;99485.00;;;;346905;28;91522;-95
2023/02/22 00:40:35;;;;;;;;;;;8.40;99.90;8.90;99488.00;;;;344696;28;83487;-94
2023/02/22 00:40:47;;;;;;;;;;;8.30;99.90;9.00;99487.00;;;;347140;28;89778;-95
2023/02/22 00:40:59;;;;;;;;;;;8.30;99.90;9.00;99492.00;;;;347288;28;82348;-94
2023/02/22 00:41:11;;;;;;;;;;;8.30;99.90;8.80;99480.00;;;;345352;28;91190;-94
2023/02/22 00:41:23;;;;;;;;;;;8.40;99.90;8.80;99472.00;;;;349054;27;83119;-95
2023/02/22 00:41:34;;;;;;;;;;;8.40;99.90;8.80;99484.00;;;;345419;28;91452;-93
2023/02/22 00:41:46;;;;;;;;;;;8.30;99.90;8.70;99479.00;;;;348909;27;82503;-95
2023/02/22 00:41:58;;;;;;;;;;;8.30;99.90;8.80;99476.00;;;;348310;27;90862;-94
2023/02/22 00:42:11;;;;;;;;;;;8.30;99.90;8.90;99483.00;;;;347315;28;82618;-94
2023/02/22 00:42:22;;;;;;;;;;;8.30;99.90;8.80;99481.00;;;;349987;27;87843;-95
2023/02/22 00:42:34;;;;;;;;;;;8.40;99.90;8.80;99478.00;;;;347417;28;82659;-95
2023/02/22 00:42:46;;;;;;;;;;;8.30;99.90;8.80;99487.00;;;;349681;27;88293;-95
2023/02/22 00:42:59;;;;;;;;;;;8.30;99.90;8.80;99483.00;;;;348734;27;83232;-95
2023/02/22 00:43:11;;;;;;;;;;;8.30;99.90;8.70;99484.00;;;;346733;28;92004;-94
2023/02/22 00:43:23;;;;;;;;;;;8.30;99.90;8.70;99484.00;;;;348971;27;83386;-95
2023/02/22 00:43:35;;;;;;;;;;;8.30;99.90;8.90;99481.00;;;;347008;28;92174;-94
2023/02/22 00:43:47;;;;;;;;;;;8.30;99.90;8.90;99484.00;;;;347612;28;83388;-95
2023/02/22 00:43:59;;;;;;;;;;;8.30;99.90;8.80;99489.00;;;;345912;28;88416;-95
2023/02/22 00:44:11;;;;;;;;;;;8.30;99.90;8.80;99479.00;;;;347586;28;83395;-94
2023/02/22 00:44:23;;;;;;;;;;;8.30;99.90;8.70;99486.00;;;;345657;28;91126;-95
2023/02/22 00:44:35;;;;;;;;;;;8.30;99.90;8.70;99476.00;;;;347556;28;83453;-95
2023/02/22 00:44:46;;;;;;;;;;;8.30;99.90;8.70;99484.00;;;;347144;28;91268;-95
2023/02/22 00:44:58;;;;;;;;;;;8.30;99.90;8.80;99481.00;;;;344925;28;82513;-94
2023/02/22 00:45:11;;;;;;;;;;;8.30;99.90;8.80;99483.00;;;;346822;27;91480;-94
2023/02/22 00:45:24;;;;;;;;;;;8.30;99.90;8.80;99483.00;;;;347806;28;82352;-94
2023/02/22 00:45:36;;;;;;;;;;;8.30;99.90;8.80;99476.00;;;;347276;28;92109;-95
2023/02/22 00:45:48;;;;;;;;;;;8.30;99.90;8.80;99480.00;;;;347951;28;82517;-94
2023/02/22 00:46:00;;;;;;;;;;;8.30;99.90;8.80;99494.00;;;;348551;27;91472;-95
2023/02/22 00:46:12;;;;;;;;;;;8.30;99.90;8.80;99486.00;;;;348798;27;83469;-95
2023/02/22 00:46:24;;;;;;;;;;;8.30;99.90;8.80;99485.00;;;;348539;27;90489;-94
2023/02/22 00:46:36;;;;;;;;;;;8.30;99.90;8.80;99481.00;;;;347236;28;83481;-94
2023/02/22 00:46:48;;;;;;;;;;;8.30;99.90;8.80;99484.00;;;;346937;28;90657;-95
2023/02/22 00:47:00;;;;;;;;;;;8.30;99.90;8.80;99483.00;;;;348842;27;83358;-94
2023/02/22 00:47:12;;;;;;;;;;;8.30;99.90;8.90;99485.00;;;;348489;27;91161;-95
2023/02/22 00:47:25;;;;;;;;;;;8.30;99.90;8.90;99477.00;;;;347411;28;82452;-95
2023/02/22 00:47:37;;;;;;;;;;;8.30;99.90;8.90;99490.00;;;;348371;27;91685;-94
2023/02/22 00:47:49;;;;;;;;;;;8.30;99.90;8.90;99481.00;;;;347072;28;82666;-95
2023/02/22 00:48:01;;;;;;;;;;;8.30;99.90;8.80;99470.00;;;;345690;28;91503;-94
2023/02/22 00:48:13;;;;;;;;;;;8.30;99.90;8.80;99477.00;;;;348901;27;82567;-95
2023/02/22 00:48:25;;;;;;;;;;;8.30;99.90;8.80;99485.00;;;;349889;27;90551;-94
2023/02/22 00:48:36;;;;;;;;;;;8.30;99.90;8.80;99478.00;;;;346339;28;83283;-95
2023/02/22 00:48:48;;;;;;;;;;;8.30;99.90;8.80;99477.00;;;;347131;28;91151;-94
2023/02/22 00:49:00;;;;;;;;;;;8.30;99.90;8.80;99476.00;;;;348913;27;82549;-95
2023/02/22 00:49:12;;;;;;;;;;;8.30;99.90;8.80;99480.00;;;;349821;27;90725;-94
2023/02/22 00:49:24;;;;;;;;;;;8.30;99.90;8.80;99483.00;;;;348775;27;82507;-95
2023/02/22 00:49:36;;;;;;;;;;;8.30;99.90;8.80;99485.00;;;;348399;27;92453;-94
2023/02/22 00:49:48;;;;;;;;;;;8.30;99.90;8.80;99475.00;;;;347404;28;83364;-95
2023/02/22 00:50:00;;;;;;;;;;;8.30;99.90;8.70;99486.00;;;;348458;27;90515;-95
2023/02/22 00:50:12;;;;;;;;;;;8.30;99.90;8.80;99477.00;;;;348767;27;83480;-94
2023/02/22 00:50:25;;;;;;;;;;;8.30;99.90;8.80;99472.00;;;;346921;28;91397;-94
2023/02/22 00:50:37;;;;;;;;;;;8.30;99.90;8.80;99479.00;;;;350378;27;82529;-94
2023/02/22 00:50:49;;;;;;;;;;;8.30;99.90;8.80;99480.00;;;;348420;27;91713;-96
2023/02/22 00:51:01;;;;;;;;;;;8.30;99.90;8.80;99480.00;;;;346096;28;82431;-95
2023/02/22 00:51:12;;;;;;;;;;;8.30;99.90;8.90;99477.00;;;;345566;28;88772;-94
2023/02/22 00:51:25;;;;;;;;;;;8.30;99.90;9.00;99481.00;;;;347473;28;83485;-95
2023/02/22 00:51:37;;;;;;;;;;;8.30;99.90;9.00;99488.00;;;;349637;27;91466;-94
2023/02/22 00:51:49;;;;;;;;;;;8.30;99.90;8.90;99474.00;;;;347377;28;83463;-94
2023/02/22 00:52:01;;;;;;;;;;;8.30;99.90;8.90;99476.00;;;;349899;27;90107;-95
2023/02/22 00:52:13;;;;;;;;;;;8.30;99.90;8.90;99481.00;;;;348710;27;83443;-94
2023/02/22 00:52:26;;;;;;;;;;;8.30;99.90;8.90;99475.00;;;;347068;28;90007;-95
2023/02/22 00:52:38;;;;;;;;;;;8.30;99.90;8.90;99476.00;;;;347502;28;83370;-95
2023/02/22 00:52:50;;;;;;;;;;;8.30;99.90;8.90;99483.00;;;;346968;28;90481;-94
2023/02/22 00:53:02;;;;;;;;;;;8.40;99.90;8.80;99470.00;;;;347406;28;83369;-95
2023/02/22 00:53:14;;;;;;;;;;;8.30;99.90;8.80;99471.00;;;;345535;28;90405;-95
2023/02/22 00:53:26;;;;;;;;;;;8.30;99.90;8.70;99468.00;;;;348898;27;82421;-95
2023/02/22 00:53:38;;;;;;;;;;;8.30;99.90;8.70;99475.00;;;;348476;27;90911;-94
2023/02/22 00:53:50;;;;;;;;;;;8.30;99.90;8.70;99472.00;;;;344731;28;83504;-94
2023/02/22 00:54:02;;;;;;;;;;;8.30;99.90;8.70;99478.00;;;;342883;28;91876;-94
2023/02/22 00:54:14;;;;;;;;;;;8.30;99.90;8.80;99464.00;;;;346072;28;83424;-94
2023/02/22 00:54:26;;;;;;;;;;;8.30;99.90;8.80;99472.00;;;;346927;28;91412;-95
2023/02/22 00:54:38;;;;;;;;;;;8.30;99.90;8.90;99473.00;;;;347415;27;83251;-95
2023/02/22 00:54:50;;;;;;;;;;;8.30;99.90;8.90;99468.00;;;;346909;28;90414;-96
2023/02/22 00:55:06;;;;;;;;;;;8.30;99.90;8.80;99465.00;;;;345909;28;83326;-95
2023/02/22 00:55:25;;;;;;;;;;;8.30;99.90;8.70;99471.00;;;;345681;28;90133;-94
2023/02/22 00:55:38;;;;;;;;;;;8.30;99.90;8.60;99478.00;;;;347529;28;82468;-94
2023/02/22 00:55:50;;;;;;;;;;;8.30;99.90;8.60;99475.00;;;;348270;27;92586;-94
2023/02/22 00:56:03;;;;;;;;;;;8.30;99.90;8.70;99476.00;;;;346182;28;82474;-94
2023/02/22 00:56:14;;;;;;;;;;;8.30;99.90;8.80;99467.00;;;;348436;27;89080;-95
2023/02/22 00:56:26;;;;;;;;;;;8.30;99.90;8.80;99476.00;;;;348941;27;82483;-94
2023/02/22 00:56:38;;;;;;;;;;;8.30;99.90;8.80;99475.00;;;;347022;28;90571;-94
2023/02/22 00:56:50;;;;;;;;;;;8.30;99.90;8.80;99473.00;;;;347428;28;83436;-93
2023/02/22 00:57:02;;;;;;;;;;;8.30;99.90;8.80;99473.00;;;;348206;27;89082;-94
2023/02/22 00:57:14;;;;;;;;;;;8.30;99.90;8.70;99463.00;;;;348781;27;82574;-95
2023/02/22 00:57:29;;;;;;;;;;;8.30;99.90;8.70;99469.00;;;;345913;28;90712;-94
2023/02/22 00:57:40;;;;;;;;;;;8.30;99.90;8.70;99476.00;;;;346089;28;82456;-94
2023/02/22 00:57:53;;;;;;;;;;;8.20;99.90;8.60;99473.00;;;;345544;28;91581;-94
2023/02/22 00:58:05;;;;;;;;;;;8.20;99.90;8.60;99471.00;;;;347447;28;82317;-95
2023/02/22 00:58:17;;;;;;;;;;;8.20;99.90;8.60;99478.00;;;;347083;28;90494;-94
2023/02/22 00:58:29;;;;;;;;;;;8.20;99.90;8.70;99469.00;;;;344486;28;83521;-95
2023/02/22 00:58:41;;;;;;;;;;;8.20;99.90;8.70;99469.00;;;;348634;27;90384;-95
2023/02/22 00:58:52;;;;;;;;;;;8.20;99.90;8.70;99467.00;;;;347518;28;82523;-94
2023/02/22 00:59:04;;;;;;;;;;;8.20;99.90;8.60;99466.00;;;;345002;28;89570;-94
2023/02/22 00:59:16;;;;;;;;;;;8.20;99.90;8.60;99471.00;;;;347480;28;83476;-94
2023/02/22 00:59:29;;;;;;;;;;;8.20;99.90;8.60;99473.00;;;;345618;28;90889;-94
2023/02/22 00:59:41;;;;;;;;;;;8.20;99.90;8.60;99475.00;;;;347414;28;83193;-95
2023/02/22 00:59:53;;;;;;;;;;;8.20;99.90;8.60;99478.00;;;;347038;28;92266;-94
2023/02/22 01:00:11;;;;;;;;;;;8.20;99.90;8.60;99474.00;;;;347540;28;83244;-95
2023/02/22 01:00:27;;;;;;;;;;;8.20;99.90;8.60;99479.00;;;;345646;28;90590;-95
2023/02/22 01:00:40;;;;;;;;;;;8.20;99.90;8.60;99478.00;;;;348981;27;83386;-94
2023/02/22 01:00:52;;;;;;;;;;;8.20;99.90;8.60;99474.00;;;;348440;27;90474;-95
2023/02/22 01:01:04;;;;;;;;;;;8.20;99.90;8.60;99467.00;;;;348997;27;83390;-95
2023/02/22 01:01:16;;;;;;;;;;;8.20;99.90;8.60;99472.00;;;;348678;27;91834;-94
2023/02/22 01:01:28;;;;;;;;;;;8.20;99.90;8.60;99477.00;;;;347603;28;82542;-94
2023/02/22 01:01:41;;;;;;;;;;;8.20;99.90;8.60;99468.00;;;;347162;28;91829;-95
2023/02/22 01:01:53;;;;;;;;;;;8.20;99.90;8.50;99472.00;;;;349077;27;82339;-95
2023/02/22 01:02:05;;;;;;;;;;;8.10;99.90;8.50;99474.00;;;;349591;27;91026;-94
2023/02/22 01:02:17;;;;;;;;;;;8.10;99.90;8.60;99468.00;;;;346009;28;82490;-94
2023/02/22 01:02:29;;;;;;;;;;;8.20;99.90;8.60;99472.00;;;;346843;28;90397;-94
2023/02/22 01:02:41;;;;;;;;;;;8.10;99.90;8.60;99474.00;;;;346184;28;82578;-94
2023/02/22 01:02:54;;;;;;;;;;;8.20;99.90;8.50;99475.00;;;;347082;28;90799;-95
2023/02/22 01:03:07;;;;;;;;;;;8.10;99.90;8.60;99479.00;;;;347435;28;83401;-94
2023/02/22 01:03:19;;;;;;;;;;;8.10;99.90;8.50;99472.00;;;;348442;27;90282;-95
2023/02/22 01:03:31;;;;;;;;;;;8.20;99.90;8.50;99467.00;;;;347670;28;83311;-93
2023/02/22 01:03:43;;;;;;;;;;;8.10;99.90;8.50;99472.00;;;;347178;28;90289;-94
2023/02/22 01:03:55;;;;;;;;;;;8.10;99.90;8.50;99475.00;;;;347213;28;82619;-94
2023/02/22 01:04:08;;;;;;;;;;;8.10;99.90;8.50;99478.00;;;;348424;27;91251;-94
2023/02/22 01:04:20;;;;;;;;;;;8.10;99.90;8.60;99474.00;;;;348908;27;83505;-95
2023/02/22 01:04:31;;;;;;;;;;;8.10;99.90;8.60;99476.00;;;;346905;28;91845;-94
2023/02/22 01:04:43;;;;;;;;;;;8.10;99.90;8.60;99473.00;;;;348916;27;83305;-94
2023/02/22 01:04:55;;;;;;;;;;;8.10;99.90;8.60;99468.00;;;;347015;28;91594;-96
2023/02/22 01:05:11;;;;;;;;;;;8.10;99.90;8.60;99474.00;;;;347391;28;82503;-95
2023/02/22 01:05:25;;;;;;;;;;;8.20;99.90;8.60;99471.00;;;;345645;28;90271;-94
2023/02/22 01:05:37;;;;;;;;;;;8.10;99.90;8.60;99472.00;;;;347340;28;83119;-94